Time;durP1;ratioP1;P1;durP2;ratioP2;P2;SDS_P1;SDS_P2;PMS_P1;PMS_P2;Temp;Humidity;BMP_temperature;BMP_pressure;BME280_temperature;BME280_humidity;BME280_pressure;Samples;Min_cycle;Max_cycle;Signal;HPM_P1;HPM_P2
2021/10/07 00:00:43;;;;;;;1.60;1.27;;;;;;;;;;5053486;28;20185;-76
2021/10/07 00:03:08;;;;;;;2.30;1.92;;;;;;;;;;5053229;28;20423;-76
2021/10/07 00:05:34;;;;;;;3.03;1.77;;;;;;;;;;5053258;28;20201;-76
2021/10/07 00:08:00;;;;;;;1.27;1.17;;;;;;;;;;5052478;28;20418;-75
2021/10/07 00:10:27;;;;;;;1.43;1.33;;;;;;;;;;5053121;28;20272;-77
2021/10/07 00:12:53;;;;;;;2.13;1.35;;;;;;;;;;5053100;28;20438;-76
2021/10/07 00:15:19;;;;;;;4.03;1.42;;;;;;;;;;5061393;28;20178;-76
2021/10/07 00:17:47;;;;;;;3.63;1.60;;;;;;;;;;5069136;28;20228;-76
2021/10/07 00:20:14;;;;;;;3.35;1.60;;;;;;;;;;5064847;28;20188;-76
2021/10/07 00:22:40;;;;;;;1.92;1.80;;;;;;;;;;5052877;28;20257;-76
2021/10/07 00:25:08;;;;;;;3.85;2.22;;;;;;;;;;5052090;28;20205;-76
2021/10/07 00:27:34;;;;;;;1.05;0.95;;;;;;;;;;5050459;28;20271;-76
2021/10/07 00:30:04;;;;;;;1.85;1.45;;;;;;;;;;5052937;28;20170;-76
2021/10/07 00:32:34;;;;;;;1.25;0.93;;;;;;;;;;5052903;28;20174;-76
2021/10/07 00:35:12;;;;;;;17.42;2.00;;;;;;;;;;5052155;28;20190;-75
2021/10/07 00:40:05;;;;;;;2.90;2.70;;;;;;;;;;5052652;28;20657;-77
2021/10/07 00:42:31;;;;;;;1.45;1.35;;;;;;;;;;5052772;28;20416;-77
2021/10/07 00:44:57;;;;;;;1.73;1.63;;;;;;;;;;5060632;28;20555;-76
2021/10/07 00:47:23;;;;;;;1.75;1.33;;;;;;;;;;5062438;28;20436;-76
2021/10/07 00:49:49;;;;;;;1.83;1.03;;;;;;;;;;5052266;28;20266;-76
2021/10/07 00:52:17;;;;;;;1.70;1.55;;;;;;;;;;5052345;28;20432;-75
2021/10/07 00:54:43;;;;;;;1.67;1.52;;;;;;;;;;5052056;28;20182;-75
2021/10/07 00:57:10;;;;;;;1.73;1.37;;;;;;;;;;5050753;28;20296;-76
2021/10/07 00:59:36;;;;;;;4.72;1.33;;;;;;;;;;5052489;28;20416;-76
2021/10/07 01:02:06;;;;;;;1.00;0.90;;;;;;;;;;5051622;28;20188;-76
2021/10/07 01:04:32;;;;;;;3.85;1.30;;;;;;;;;;5051837;28;20456;-76
2021/10/07 01:06:58;;;;;;;1.60;1.50;;;;;;;;;;5051358;28;20224;-76
2021/10/07 01:09:24;;;;;;;1.67;1.30;;;;;;;;;;5051603;28;20539;-76
2021/10/07 01:11:50;;;;;;;1.00;0.90;;;;;;;;;;5051835;28;20526;-76
2021/10/07 01:14:31;;;;;;;1.43;1.10;;;;;;;;;;5057120;28;20488;-76
2021/10/07 01:17:00;;;;;;;1.17;0.90;;;;;;;;;;5055655;28;20443;-76
2021/10/07 01:19:27;;;;;;;4.53;2.35;;;;;;;;;;5051340;28;20250;-75
2021/10/07 01:21:53;;;;;;;5.00;1.77;;;;;;;;;;5051915;28;20189;-75
2021/10/07 01:24:19;;;;;;;0.87;0.87;;;;;;;;;;5052306;28;20205;-76
2021/10/07 01:26:45;;;;;;;1.17;1.10;;;;;;;;;;5050412;28;20452;-77
2021/10/07 01:29:11;;;;;;;1.63;1.52;;;;;;;;;;5051616;28;20822;-76
2021/10/07 01:31:37;;;;;;;3.27;2.50;;;;;;;;;;5067142;28;20182;-76
2021/10/07 01:34:03;;;;;;;2.75;2.00;;;;;;;;;;5051347;28;20431;-76
2021/10/07 01:36:29;;;;;;;2.70;1.27;;;;;;;;;;5051330;28;20839;-76
2021/10/07 01:38:55;;;;;;;1.57;1.10;;;;;;;;;;5051697;28;20428;-76
2021/10/07 01:41:21;;;;;;;1.00;0.90;;;;;;;;;;5051707;28;20428;-76
2021/10/07 01:43:46;;;;;;;1.23;1.13;;;;;;;;;;5052613;28;20462;-76
2021/10/07 01:46:12;;;;;;;3.63;1.20;;;;;;;;;;5062590;28;20852;-76
2021/10/07 01:48:38;;;;;;;6.70;1.33;;;;;;;;;;5054477;28;20946;-76
2021/10/07 01:51:04;;;;;;;1.60;1.40;;;;;;;;;;5051929;28;20428;-76
2021/10/07 01:53:30;;;;;;;1.67;1.53;;;;;;;;;;5049333;28;20442;-76
2021/10/07 01:55:56;;;;;;;0.80;0.70;;;;;;;;;;5050190;28;20494;-76
2021/10/07 01:58:25;;;;;;;4.05;1.90;;;;;;;;;;5049873;28;20491;-76
2021/10/07 02:00:51;;;;;;;1.60;1.48;;;;;;;;;;5050859;28;20173;-76
2021/10/07 02:03:17;;;;;;;1.30;1.20;;;;;;;;;;5051356;28;20177;-76
2021/10/07 02:05:43;;;;;;;2.65;1.98;;;;;;;;;;5051021;28;20512;-75
2021/10/07 02:08:09;;;;;;;1.03;0.93;;;;;;;;;;5050963;28;20611;-76
2021/10/07 02:10:35;;;;;;;1.73;1.10;;;;;;;;;;5051509;28;20896;-75
2021/10/07 02:13:01;;;;;;;2.22;2.00;;;;;;;;;;5051354;28;20404;-76
2021/10/07 02:15:27;;;;;;;1.47;1.27;;;;;;;;;;5056524;28;20191;-76
2021/10/07 02:17:53;;;;;;;2.35;1.63;;;;;;;;;;5068410;28;20473;-76
2021/10/07 02:20:19;;;;;;;1.37;0.90;;;;;;;;;;5073191;28;20180;-76
2021/10/07 02:22:45;;;;;;;1.00;0.90;;;;;;;;;;5065541;28;20432;-75
2021/10/07 02:25:11;;;;;;;3.17;1.63;;;;;;;;;;5053797;28;20455;-76
2021/10/07 02:27:37;;;;;;;1.48;1.38;;;;;;;;;;5054036;28;20220;-76
2021/10/07 02:30:05;;;;;;;2.17;1.05;;;;;;;;;;5054632;28;20638;-76
2021/10/07 02:32:31;;;;;;;1.27;1.17;;;;;;;;;;5054137;28;20205;-75
2021/10/07 02:34:57;;;;;;;4.60;1.73;;;;;;;;;;5054831;28;20173;-76
2021/10/07 02:37:23;;;;;;;1.33;1.23;;;;;;;;;;5053680;28;20437;-75
2021/10/07 02:39:49;;;;;;;2.53;2.43;;;;;;;;;;5054847;28;20412;-75
2021/10/07 02:42:15;;;;;;;3.30;2.70;;;;;;;;;;5054761;28;20423;-75
2021/10/07 02:44:41;;;;;;;1.37;1.27;;;;;;;;;;5060028;28;20467;-75
2021/10/07 02:47:07;;;;;;;1.40;1.30;;;;;;;;;;5071516;28;20817;-75
2021/10/07 02:49:33;;;;;;;3.10;1.00;;;;;;;;;;5074413;28;20494;-75
2021/10/07 02:51:59;;;;;;;1.83;1.73;;;;;;;;;;5074265;28;20430;-75
2021/10/07 02:54:25;;;;;;;2.80;2.60;;;;;;;;;;5074615;28;20411;-75
2021/10/07 02:56:51;;;;;;;1.57;1.47;;;;;;;;;;5058997;28;20494;-74
2021/10/07 02:59:17;;;;;;;1.20;1.10;;;;;;;;;;5053765;28;20460;-75
2021/10/07 03:01:43;;;;;;;2.50;1.67;;;;;;;;;;5053839;28;20217;-75
2021/10/07 03:04:09;;;;;;;0.80;0.60;;;;;;;;;;5053936;28;20456;-75
2021/10/07 03:06:35;;;;;;;9.23;2.27;;;;;;;;;;5053707;28;20197;-75
2021/10/07 03:09:02;;;;;;;1.07;1.00;;;;;;;;;;5055093;28;20467;-75
2021/10/07 03:11:28;;;;;;;1.10;0.90;;;;;;;;;;5054364;28;20462;-75
2021/10/07 03:13:54;;;;;;;1.70;1.60;;;;;;;;;;5056855;28;20209;-75
2021/10/07 03:16:20;;;;;;;1.33;1.23;;;;;;;;;;5066058;28;20447;-75
2021/10/07 03:18:46;;;;;;;1.97;1.67;;;;;;;;;;5054517;28;20200;-75
2021/10/07 03:21:12;;;;;;;1.70;1.60;;;;;;;;;;5054070;28;20431;-75
2021/10/07 03:23:38;;;;;;;1.50;0.97;;;;;;;;;;5055574;28;20446;-75
2021/10/07 03:26:04;;;;;;;2.07;1.10;;;;;;;;;;5051804;28;20633;-74
2021/10/07 03:28:29;;;;;;;2.17;1.97;;;;;;;;;;5054308;28;20408;-75
2021/10/07 03:30:55;;;;;;;3.33;1.63;;;;;;;;;;5053320;28;20435;-75
2021/10/07 03:33:21;;;;;;;1.63;1.53;;;;;;;;;;5054000;28;20412;-75
2021/10/07 03:35:47;;;;;;;1.77;1.67;;;;;;;;;;5053982;28;20440;-75
2021/10/07 03:38:13;;;;;;;0.80;0.73;;;;;;;;;;5054039;28;20846;-74
2021/10/07 03:40:39;;;;;;;1.97;1.87;;;;;;;;;;5053716;28;20845;-75
2021/10/07 03:43:05;;;;;;;2.83;1.63;;;;;;;;;;5054030;28;20404;-75
2021/10/07 03:45:31;;;;;;;1.00;0.90;;;;;;;;;;5061902;28;20467;-75
2021/10/07 03:47:57;;;;;;;2.95;1.50;;;;;;;;;;5072004;28;20450;-75
2021/10/07 03:50:23;;;;;;;2.80;2.20;;;;;;;;;;5074062;28;20169;-75
2021/10/07 03:52:49;;;;;;;2.65;2.10;;;;;;;;;;5071609;28;20399;-75
2021/10/07 03:55:15;;;;;;;2.30;2.10;;;;;;;;;;5044926;28;20181;-75
2021/10/07 03:57:41;;;;;;;1.23;1.13;;;;;;;;;;5052571;28;20439;-75
2021/10/07 04:00:10;;;;;;;3.97;3.67;;;;;;;;;;5052753;28;20231;-75
2021/10/07 04:02:36;;;;;;;1.48;1.33;;;;;;;;;;5033320;28;20409;-75
2021/10/07 04:05:02;;;;;;;1.30;1.07;;;;;;;;;;5033239;28;20213;-75
2021/10/07 04:07:28;;;;;;;1.38;1.05;;;;;;;;;;5032444;28;20532;-75
2021/10/07 04:09:54;;;;;;;1.17;1.07;;;;;;;;;;5047537;28;20256;-75
2021/10/07 04:12:20;;;;;;;5.57;2.40;;;;;;;;;;5051040;28;20435;-75
2021/10/07 04:14:46;;;;;;;2.50;1.03;;;;;;;;;;5057760;28;20431;-75
2021/10/07 04:17:12;;;;;;;1.70;1.57;;;;;;;;;;5059588;28;21086;-75
2021/10/07 04:19:38;;;;;;;2.80;2.47;;;;;;;;;;5052543;28;20415;-75
2021/10/07 04:22:04;;;;;;;2.07;1.53;;;;;;;;;;5053196;28;20177;-75
2021/10/07 04:24:30;;;;;;;2.60;2.50;;;;;;;;;;5053486;28;20550;-74
2021/10/07 04:26:56;;;;;;;2.30;1.60;;;;;;;;;;5052592;28;20470;-74
2021/10/07 04:29:22;;;;;;;1.77;1.67;;;;;;;;;;5053585;28;20431;-74
2021/10/07 04:31:48;;;;;;;3.53;3.20;;;;;;;;;;5054037;28;20404;-74
2021/10/07 04:34:14;;;;;;;1.50;1.40;;;;;;;;;;5053518;28;20178;-74
2021/10/07 04:36:41;;;;;;;3.40;1.10;;;;;;;;;;5065297;28;20470;-74
2021/10/07 04:39:07;;;;;;;2.17;1.40;;;;;;;;;;5045773;28;20420;-75
2021/10/07 04:41:33;;;;;;;1.90;1.80;;;;;;;;;;5050779;28;20231;-75
2021/10/07 04:43:59;;;;;;;1.97;1.37;;;;;;;;;;5054375;28;20668;-75
2021/10/07 04:46:25;;;;;;;1.87;1.77;;;;;;;;;;5063081;28;20502;-74
2021/10/07 04:48:54;;;;;;;11.30;2.58;;;;;;;;;;5072153;28;20451;-74
2021/10/07 04:51:19;;;;;;;1.75;1.48;;;;;;;;;;5060411;28;20189;-74
2021/10/07 04:53:45;;;;;;;2.90;2.70;;;;;;;;;;5052042;28;20544;-75
2021/10/07 04:56:11;;;;;;;1.87;0.90;;;;;;;;;;5050701;28;20529;-74
2021/10/07 04:58:37;;;;;;;2.57;2.37;;;;;;;;;;5051931;28;20408;-74
2021/10/07 05:01:03;;;;;;;4.60;3.37;;;;;;;;;;5052107;28;20415;-74
2021/10/07 05:03:29;;;;;;;8.83;2.10;;;;;;;;;;5051355;28;20435;-75
2021/10/07 05:05:55;;;;;;;1.25;1.15;;;;;;;;;;5050838;28;20487;-75
2021/10/07 05:08:21;;;;;;;2.50;0.93;;;;;;;;;;5051180;28;20177;-75
2021/10/07 05:10:47;;;;;;;2.45;1.45;;;;;;;;;;5051901;28;20896;-75
2021/10/07 05:13:13;;;;;;;2.78;1.88;;;;;;;;;;5051756;28;20188;-74
2021/10/07 05:15:39;;;;;;;1.30;1.15;;;;;;;;;;5059750;28;20575;-74
2021/10/07 05:18:05;;;;;;;1.52;1.25;;;;;;;;;;5047060;28;20185;-74
2021/10/07 05:20:31;;;;;;;3.40;3.20;;;;;;;;;;5049269;28;20653;-76
2021/10/07 05:22:57;;;;;;;2.17;1.93;;;;;;;;;;5051920;28;20492;-76
2021/10/07 05:25:23;;;;;;;1.73;1.60;;;;;;;;;;5051446;28;20811;-76
2021/10/07 05:27:49;;;;;;;1.97;1.87;;;;;;;;;;5050669;28;20408;-76
2021/10/07 05:30:15;;;;;;;3.93;2.80;;;;;;;;;;5048685;28;20436;-76
2021/10/07 05:32:41;;;;;;;1.07;0.93;;;;;;;;;;5051518;28;20416;-76
2021/10/07 05:35:07;;;;;;;3.23;1.63;;;;;;;;;;5049539;28;20529;-75
2021/10/07 05:37:33;;;;;;;1.00;0.90;;;;;;;;;;5049776;28;20908;-75
2021/10/07 05:39:59;;;;;;;5.72;2.20;;;;;;;;;;5049604;28;20213;-74
2021/10/07 05:42:25;;;;;;;1.57;1.23;;;;;;;;;;5051387;28;20223;-75
2021/10/07 05:44:51;;;;;;;0.80;0.67;;;;;;;;;;5057981;28;20506;-76
2021/10/07 05:47:17;;;;;;;1.13;1.02;;;;;;;;;;5058953;28;20446;-76
2021/10/07 05:49:43;;;;;;;1.40;1.30;;;;;;;;;;5051371;28;20256;-76
2021/10/07 05:52:09;;;;;;;0.80;0.60;;;;;;;;;;5049249;28;20454;-76
2021/10/07 05:54:35;;;;;;;2.85;1.55;;;;;;;;;;5052938;28;20239;-76
2021/10/07 05:57:02;;;;;;;1.27;1.17;;;;;;;;;;5054082;28;20217;-75
2021/10/07 05:59:28;;;;;;;4.13;3.13;;;;;;;;;;5053243;28;20442;-75
2021/10/07 06:01:54;;;;;;;7.40;3.83;;;;;;;;;;5053576;28;20567;-74
2021/10/07 06:04:20;;;;;;;1.07;0.90;;;;;;;;;;5050207;28;20474;-76
2021/10/07 06:06:46;;;;;;;1.43;1.33;;;;;;;;;;5054556;28;20443;-75
2021/10/07 06:09:13;;;;;;;1.40;0.85;;;;;;;;;;5054003;28;20931;-75
2021/10/07 06:11:39;;;;;;;2.60;1.08;;;;;;;;;;5055165;28;20190;-74
2021/10/07 06:14:06;;;;;;;0.80;0.70;;;;;;;;;;5058681;28;20181;-75
2021/10/07 06:16:33;;;;;;;1.95;1.85;;;;;;;;;;5065780;28;20262;-75
2021/10/07 06:19:02;;;;;;;2.17;1.75;;;;;;;;;;5075050;28;20187;-75
2021/10/07 06:21:28;;;;;;;2.05;1.95;;;;;;;;;;5074994;28;20529;-75
2021/10/07 06:23:54;;;;;;;1.53;0.90;;;;;;;;;;5074565;28;20176;-73
2021/10/07 06:26:20;;;;;;;2.70;1.80;;;;;;;;;;5061593;28;20829;-74
2021/10/07 06:28:46;;;;;;;1.58;1.33;;;;;;;;;;5054968;28;20476;-74
2021/10/07 06:31:13;;;;;;;2.55;0.95;;;;;;;;;;5055354;28;20189;-73
2021/10/07 06:33:39;;;;;;;0.80;0.70;;;;;;;;;;5055986;28;20177;-74
2021/10/07 06:36:04;;;;;;;1.10;1.00;;;;;;;;;;5054602;28;20219;-74
2021/10/07 06:38:30;;;;;;;2.33;2.13;;;;;;;;;;5053158;28;20495;-74
2021/10/07 06:40:56;;;;;;;7.23;1.43;;;;;;;;;;5053905;28;20451;-74
2021/10/07 06:43:22;;;;;;;2.30;1.20;;;;;;;;;;5054595;28;20411;-74
2021/10/07 06:45:50;;;;;;;1.95;1.15;;;;;;;;;;5056966;28;20478;-74
2021/10/07 06:48:16;;;;;;;1.45;1.35;;;;;;;;;;5056148;28;20189;-74
2021/10/07 06:50:42;;;;;;;2.38;2.28;;;;;;;;;;5048536;28;20192;-74
2021/10/07 06:53:09;;;;;;;1.42;1.33;;;;;;;;;;5053430;28;20197;-73
2021/10/07 06:55:35;;;;;;;6.22;1.50;;;;;;;;;;5049834;28;20217;-74
2021/10/07 06:58:01;;;;;;;1.25;1.15;;;;;;;;;;5047276;28;20181;-74
2021/10/07 07:00:27;;;;;;;4.60;1.43;;;;;;;;;;5054113;28;20247;-74
2021/10/07 07:02:53;;;;;;;1.02;0.93;;;;;;;;;;5054348;28;20504;-74
2021/10/07 07:05:19;;;;;;;1.67;1.57;;;;;;;;;;5053690;28;20287;-74
2021/10/07 07:07:45;;;;;;;1.00;0.90;;;;;;;;;;5052038;28;20454;-74
2021/10/07 07:10:17;;;;;;;2.07;0.80;;;;;;;;;;5054343;28;20180;-74
2021/10/07 07:12:44;;;;;;;0.90;0.80;;;;;;;;;;5053168;28;20439;-73
2021/10/07 07:15:10;;;;;;;3.38;1.85;;;;;;;;;;5061962;28;20177;-74
2021/10/07 07:17:36;;;;;;;13.90;3.00;;;;;;;;;;5069102;28;20201;-74
2021/10/07 07:20:02;;;;;;;0.80;0.80;;;;;;;;;;5073782;28;20644;-76
2021/10/07 07:22:28;;;;;;;1.70;1.20;;;;;;;;;;5073736;28;20173;-76
2021/10/07 07:24:55;;;;;;;3.38;3.10;;;;;;;;;;5073888;28;20208;-76
2021/10/07 07:27:21;;;;;;;1.25;1.15;;;;;;;;;;5066917;28;20197;-75
2021/10/07 07:29:47;;;;;;;2.80;1.70;;;;;;;;;;5052347;28;20181;-75
2021/10/07 07:32:13;;;;;;;3.23;2.13;;;;;;;;;;5053747;28;20415;-74
2021/10/07 07:34:39;;;;;;;1.38;1.27;;;;;;;;;;5053381;28;20762;-75
2021/10/07 07:37:05;;;;;;;1.30;1.20;;;;;;;;;;5052486;28;20334;-75
2021/10/07 07:39:31;;;;;;;1.57;1.47;;;;;;;;;;5053682;28;20743;-75
2021/10/07 07:41:57;;;;;;;4.17;1.53;;;;;;;;;;5053079;28;20520;-75
2021/10/07 07:44:23;;;;;;;1.63;1.53;;;;;;;;;;5058340;28;20615;-75
2021/10/07 07:46:49;;;;;;;0.90;0.70;;;;;;;;;;5057570;28;20444;-75
2021/10/07 07:49:15;;;;;;;2.45;2.05;;;;;;;;;;5052856;28;20409;-75
2021/10/07 07:51:41;;;;;;;4.10;1.43;;;;;;;;;;5055462;28;20196;-75
2021/10/07 07:54:07;;;;;;;4.93;2.08;;;;;;;;;;5052102;28;20470;-75
2021/10/07 07:56:33;;;;;;;2.03;1.50;;;;;;;;;;5052590;28;20233;-75
2021/10/07 07:58:59;;;;;;;4.03;1.57;;;;;;;;;;5052225;28;20408;-75
2021/10/07 08:01:25;;;;;;;3.55;2.70;;;;;;;;;;5033357;28;20772;-75
2021/10/07 08:03:51;;;;;;;0.90;0.80;;;;;;;;;;5032867;28;20166;-75
2021/10/07 08:06:17;;;;;;;7.53;1.60;;;;;;;;;;5034438;28;20476;-75
2021/10/07 08:08:43;;;;;;;3.40;1.13;;;;;;;;;;5052886;28;20416;-75
2021/10/07 08:11:09;;;;;;;3.95;1.70;;;;;;;;;;5052943;28;20917;-75
2021/10/07 08:13:35;;;;;;;2.20;1.40;;;;;;;;;;5053026;28;20264;-75
2021/10/07 08:16:01;;;;;;;1.17;1.00;;;;;;;;;;5063884;28;20455;-75
2021/10/07 08:18:27;;;;;;;2.20;1.10;;;;;;;;;;5052389;28;20408;-75
2021/10/07 08:20:53;;;;;;;1.33;1.23;;;;;;;;;;5052248;28;20791;-75
2021/10/07 08:23:23;;;;;;;2.55;0.90;;;;;;;;;;5052844;28;20408;-72
2021/10/07 08:25:49;;;;;;;2.67;2.42;;;;;;;;;;5041257;28;20202;-72
2021/10/07 08:28:15;;;;;;;1.75;1.27;;;;;;;;;;5050231;28;20558;-73
2021/10/07 08:30:41;;;;;;;4.05;1.50;;;;;;;;;;5051494;28;20181;-74
2021/10/07 08:33:07;;;;;;;2.30;1.37;;;;;;;;;;5052426;28;20177;-72
2021/10/07 08:35:33;;;;;;;2.40;0.80;;;;;;;;;;5051936;28;20416;-73
2021/10/07 08:37:59;;;;;;;1.75;1.50;;;;;;;;;;5048966;28;20538;-74
2021/10/07 08:40:25;;;;;;;2.28;2.08;;;;;;;;;;5046902;28;20397;-73
2021/10/07 08:42:51;;;;;;;0.80;0.50;;;;;;;;;;5052495;28;20251;-74
2021/10/07 08:45:17;;;;;;;1.33;1.23;;;;;;;;;;5055477;28;20232;-73
2021/10/07 08:47:45;;;;;;;1.33;1.17;;;;;;;;;;5049542;28;20455;-73
2021/10/07 08:50:12;;;;;;;11.65;1.80;;;;;;;;;;5051728;28;20404;-73
2021/10/07 08:52:39;;;;;;;3.08;1.65;;;;;;;;;;5052245;28;20185;-72
2021/10/07 08:55:05;;;;;;;4.13;2.30;;;;;;;;;;5052054;28;20261;-72
2021/10/07 08:57:32;;;;;;;1.38;1.27;;;;;;;;;;5051154;28;20709;-73
2021/10/07 08:59:58;;;;;;;4.73;3.50;;;;;;;;;;5052048;28;20260;-72
2021/10/07 09:02:32;;;;;;;2.75;1.13;;;;;;;;;;5046901;28;20842;-72
2021/10/07 09:05:19;;;;;;;4.25;2.80;;;;;;;;;;5031766;28;20312;-72
2021/10/07 09:08:04;;;;;;;1.27;1.17;;;;;;;;;;5031172;28;20197;-72
2021/10/07 09:10:43;;;;;;;1.77;1.33;;;;;;;;;;5050065;28;20193;-74
2021/10/07 09:13:30;;;;;;;5.70;2.05;;;;;;;;;;5051418;28;20185;-75
2021/10/07 09:15:57;;;;;;;3.17;2.92;;;;;;;;;;5057437;28;20201;-75
2021/10/07 09:18:24;;;;;;;22.83;1.58;;;;;;;;;;5052411;28;20204;-75
2021/10/07 09:20:50;;;;;;;4.45;2.30;;;;;;;;;;5051347;28;20699;-75
2021/10/07 09:23:19;;;;;;;1.17;1.08;;;;;;;;;;5051798;28;20188;-75
2021/10/07 09:25:53;;;;;;;1.67;1.20;;;;;;;;;;5050095;28;20586;-75
2021/10/07 09:28:19;;;;;;;1.05;0.95;;;;;;;;;;5050119;28;20243;-75
2021/10/07 09:30:45;;;;;;;1.53;1.43;;;;;;;;;;5048944;28;20184;-75
2021/10/07 09:33:11;;;;;;;2.45;1.58;;;;;;;;;;5048718;28;20481;-76
2021/10/07 09:35:37;;;;;;;0.80;0.70;;;;;;;;;;5049413;28;20188;-75
2021/10/07 09:38:05;;;;;;;1.70;1.13;;;;;;;;;;5049407;28;20181;-75
2021/10/07 09:40:32;;;;;;;1.75;1.65;;;;;;;;;;5050993;28;20235;-75
2021/10/07 09:43:03;;;;;;;1.65;0.93;;;;;;;;;;5050333;28;20185;-75
2021/10/07 09:45:35;;;;;;;3.50;1.63;;;;;;;;;;5058196;28;20550;-75
2021/10/07 09:48:06;;;;;;;1.20;0.80;;;;;;;;;;5065165;28;20185;-75
2021/10/07 09:50:35;;;;;;;1.70;1.48;;;;;;;;;;5051502;28;20258;-75
2021/10/07 09:53:01;;;;;;;1.25;1.15;;;;;;;;;;5051531;28;20234;-75
2021/10/07 09:55:28;;;;;;;2.00;1.83;;;;;;;;;;5051710;28;20653;-75
2021/10/07 09:58:01;;;;;;;2.58;1.73;;;;;;;;;;5050943;28;20412;-75
2021/10/07 10:00:29;;;;;;;1.60;1.50;;;;;;;;;;5048024;28;20185;-75
2021/10/07 10:03:00;;;;;;;2.35;2.15;;;;;;;;;;5037832;28;20642;-75
2021/10/07 10:05:26;;;;;;;2.78;1.40;;;;;;;;;;5047835;28;20254;-75
2021/10/07 10:07:52;;;;;;;1.70;1.60;;;;;;;;;;5050649;28;20547;-75
2021/10/07 10:10:18;;;;;;;1.20;1.10;;;;;;;;;;5051220;28;20693;-75
2021/10/07 10:12:45;;;;;;;3.63;2.65;;;;;;;;;;5051340;28;20248;-75
2021/10/07 10:15:12;;;;;;;1.65;1.45;;;;;;;;;;5057151;28;20219;-75
2021/10/07 10:17:38;;;;;;;1.10;0.88;;;;;;;;;;5053610;28;20198;-75
2021/10/07 10:20:10;;;;;;;1.45;1.35;;;;;;;;;;5049176;28;20657;-75
2021/10/07 10:22:36;;;;;;;1.65;1.00;;;;;;;;;;5051348;28;20188;-75
2021/10/07 10:25:02;;;;;;;5.25;1.63;;;;;;;;;;5051155;28;20603;-75
2021/10/07 10:27:45;;;;;;;1.20;0.88;;;;;;;;;;5050878;28;20194;-76
2021/10/07 10:30:24;;;;;;;1.92;1.75;;;;;;;;;;5050760;28;20172;-76
2021/10/07 10:32:51;;;;;;;1.75;1.65;;;;;;;;;;5051287;28;20207;-76
2021/10/07 10:35:30;;;;;;;2.30;1.20;;;;;;;;;;5048461;28;20544;-76
2021/10/07 10:37:56;;;;;;;1.23;1.13;;;;;;;;;;5050560;28;20228;-76
2021/10/07 10:40:22;;;;;;;3.10;2.90;;;;;;;;;;5051456;28;20185;-76
2021/10/07 10:42:48;;;;;;;0.80;0.67;;;;;;;;;;5054780;28;20181;-76
2021/10/07 10:45:14;;;;;;;1.47;1.37;;;;;;;;;;5062660;28;21168;-76
2021/10/07 10:47:46;;;;;;;4.20;2.03;;;;;;;;;;5070686;28;20439;-76
2021/10/07 10:50:12;;;;;;;1.35;1.23;;;;;;;;;;5060407;28;20515;-75
2021/10/07 10:52:43;;;;;;;6.18;2.22;;;;;;;;;;5054205;28;20185;-76
2021/10/07 10:55:13;;;;;;;2.25;1.08;;;;;;;;;;5054368;28;20259;-76
2021/10/07 10:57:41;;;;;;;2.75;1.90;;;;;;;;;;5053666;28;20204;-76
2021/10/07 11:00:25;;;;;;;1.88;1.77;;;;;;;;;;5054452;28;20260;-76
2021/10/07 11:02:54;;;;;;;1.63;1.35;;;;;;;;;;5053592;28;20699;-76
2021/10/07 11:05:20;;;;;;;2.72;2.40;;;;;;;;;;5053802;28;20559;-76
2021/10/07 11:07:47;;;;;;;1.45;1.35;;;;;;;;;;5052801;28;20225;-76
2021/10/07 11:10:17;;;;;;;4.75;1.98;;;;;;;;;;5054377;28;20269;-77
2021/10/07 11:12:46;;;;;;;2.38;1.15;;;;;;;;;;5054153;28;20175;-76
2021/10/07 11:15:12;;;;;;;2.13;2.03;;;;;;;;;;5062178;28;20186;-76
2021/10/07 11:17:42;;;;;;;2.00;1.90;;;;;;;;;;5055451;28;20262;-76
2021/10/07 11:20:09;;;;;;;2.85;2.47;;;;;;;;;;5053856;28;20181;-76
2021/10/07 11:22:35;;;;;;;1.95;1.85;;;;;;;;;;5053504;28;20764;-76
2021/10/07 11:25:01;;;;;;;0.90;0.73;;;;;;;;;;5053920;28;20197;-76
2021/10/07 11:27:36;;;;;;;3.75;3.47;;;;;;;;;;5053076;28;20436;-76
2021/10/07 11:30:03;;;;;;;4.10;2.72;;;;;;;;;;5053719;28;20169;-76
2021/10/07 11:32:29;;;;;;;2.28;2.15;;;;;;;;;;5053765;28;20178;-76
2021/10/07 11:35:03;;;;;;;2.03;1.92;;;;;;;;;;5042205;28;20190;-76
2021/10/07 11:37:43;;;;;;;2.50;1.10;;;;;;;;;;5038599;28;20197;-76
2021/10/07 11:40:27;;;;;;;1.23;1.13;;;;;;;;;;5053403;28;20565;-76
2021/10/07 11:42:54;;;;;;;1.95;1.60;;;;;;;;;;5053441;28;20188;-76
2021/10/07 11:45:24;;;;;;;4.43;1.38;;;;;;;;;;5061567;28;20733;-76
2021/10/07 11:47:50;;;;;;;2.55;1.17;;;;;;;;;;5054609;28;20184;-76
2021/10/07 11:50:17;;;;;;;3.95;1.25;;;;;;;;;;5053012;28;20269;-76
2021/10/07 11:52:43;;;;;;;3.05;1.40;;;;;;;;;;5052013;28;20182;-76
2021/10/07 11:55:12;;;;;;;2.17;1.03;;;;;;;;;;5053253;28;20261;-76
2021/10/07 11:57:45;;;;;;;2.60;1.25;;;;;;;;;;5052215;28;20994;-76
2021/10/07 12:00:11;;;;;;;1.27;1.17;;;;;;;;;;5053328;28;20729;-76
2021/10/07 12:02:37;;;;;;;3.05;2.08;;;;;;;;;;5052510;28;20194;-76
2021/10/07 12:05:16;;;;;;;2.13;1.10;;;;;;;;;;5052877;28;20197;-76
2021/10/07 12:07:42;;;;;;;4.13;3.50;;;;;;;;;;5051756;28;20493;-76
2021/10/07 12:10:08;;;;;;;3.20;2.10;;;;;;;;;;5053027;28;20630;-76
2021/10/07 12:12:34;;;;;;;1.23;1.13;;;;;;;;;;5052978;28;20505;-76
2021/10/07 12:15:00;;;;;;;1.63;1.17;;;;;;;;;;5052607;28;20733;-76
2021/10/07 12:17:26;;;;;;;7.27;1.97;;;;;;;;;;5052355;28;20480;-76
2021/10/07 12:19:52;;;;;;;14.03;3.13;;;;;;;;;;5052959;28;20424;-76
2021/10/07 12:22:26;;;;;;;8.07;1.17;;;;;;;;;;5052729;28;20446;-76
2021/10/07 12:24:56;;;;;;;3.33;3.07;;;;;;;;;;5052564;28;20458;-76
2021/10/07 12:27:31;;;;;;;2.65;1.38;;;;;;;;;;5052166;28;20978;-76
2021/10/07 12:30:03;;;;;;;8.70;2.00;;;;;;;;;;5052888;28;20186;-76
2021/10/07 12:32:29;;;;;;;3.85;1.65;;;;;;;;;;5053092;28;20209;-76
2021/10/07 12:34:57;;;;;;;1.37;1.27;;;;;;;;;;5052863;28;20192;-76
2021/10/07 12:37:27;;;;;;;4.63;1.97;;;;;;;;;;5052329;28;20440;-77
2021/10/07 12:39:53;;;;;;;6.50;1.98;;;;;;;;;;5052348;28;20906;-76
2021/10/07 12:42:20;;;;;;;1.10;1.00;;;;;;;;;;5052626;28;20234;-76
2021/10/07 12:44:51;;;;;;;1.63;1.53;;;;;;;;;;5053309;28;20548;-77
2021/10/07 12:47:17;;;;;;;1.37;1.03;;;;;;;;;;5058721;28;20445;-77
2021/10/07 12:49:45;;;;;;;4.00;1.37;;;;;;;;;;5052652;28;20411;-77
2021/10/07 12:52:30;;;;;;;1.40;0.93;;;;;;;;;;5052400;28;20427;-76
2021/10/07 12:54:58;;;;;;;1.50;1.20;;;;;;;;;;5052597;28;20386;-77
2021/10/07 12:57:46;;;;;;;1.57;1.20;;;;;;;;;;5052512;28;20542;-77
2021/10/07 13:00:44;;;;;;;2.07;1.00;;;;;;;;;;5052830;28;20411;-77
2021/10/07 13:03:17;;;;;;;2.43;2.23;;;;;;;;;;5018407;28;20896;-77
2021/10/07 13:05:43;;;;;;;1.73;1.63;;;;;;;;;;5051493;28;20460;-76
2021/10/07 13:08:13;;;;;;;2.57;2.13;;;;;;;;;;5051790;28;20426;-77
2021/10/07 13:10:43;;;;;;;2.60;1.50;;;;;;;;;;5051885;28;20382;-77
2021/10/07 13:13:09;;;;;;;1.00;0.90;;;;;;;;;;5052252;28;20446;-77
2021/10/07 13:15:36;;;;;;;5.23;1.57;;;;;;;;;;5051609;28;20419;-77
2021/10/07 13:18:02;;;;;;;2.63;2.43;;;;;;;;;;5051146;28;20496;-77
2021/10/07 13:20:28;;;;;;;1.43;1.23;;;;;;;;;;5051869;28;20393;-77
2021/10/07 13:22:54;;;;;;;2.63;1.70;;;;;;;;;;5051821;28;20422;-77
2021/10/07 13:25:22;;;;;;;2.07;1.90;;;;;;;;;;5051525;28;20436;-77
2021/10/07 13:27:48;;;;;;;3.23;2.00;;;;;;;;;;5050919;28;20443;-77
2021/10/07 13:30:16;;;;;;;2.17;2.07;;;;;;;;;;5051424;28;20972;-77
2021/10/07 13:32:43;;;;;;;1.37;1.27;;;;;;;;;;5052334;28;20448;-77
2021/10/07 13:35:10;;;;;;;1.60;1.50;;;;;;;;;;5051582;28;20854;-77
2021/10/07 13:37:37;;;;;;;2.40;1.47;;;;;;;;;;5050972;28;20463;-77
2021/10/07 13:40:03;;;;;;;2.43;2.27;;;;;;;;;;5050697;28;20418;-77
2021/10/07 13:42:29;;;;;;;3.00;1.83;;;;;;;;;;5051298;28;20409;-77
2021/10/07 13:44:55;;;;;;;1.00;0.90;;;;;;;;;;5059682;28;20901;-77
2021/10/07 13:47:21;;;;;;;1.00;0.90;;;;;;;;;;5059337;28;20520;-77
2021/10/07 13:49:51;;;;;;;2.60;2.40;;;;;;;;;;5040551;28;20419;-77
2021/10/07 13:52:17;;;;;;;1.43;1.33;;;;;;;;;;5051417;28;20400;-77
2021/10/07 13:54:43;;;;;;;1.33;1.23;;;;;;;;;;5051838;28;20422;-77
2021/10/07 13:57:09;;;;;;;1.10;0.90;;;;;;;;;;5050887;28;20942;-76
2021/10/07 13:59:35;;;;;;;1.23;1.13;;;;;;;;;;5051506;28;20389;-77
2021/10/07 14:02:01;;;;;;;1.87;1.63;;;;;;;;;;5051538;28;20418;-77
2021/10/07 14:04:27;;;;;;;1.93;1.83;;;;;;;;;;5050661;28;20470;-77
2021/10/07 14:06:53;;;;;;;1.57;1.47;;;;;;;;;;5050792;28;20446;-76
2021/10/07 14:09:19;;;;;;;1.73;0.97;;;;;;;;;;5051243;28;20419;-77
2021/10/07 14:11:45;;;;;;;1.60;1.23;;;;;;;;;;5051299;28;20411;-76
2021/10/07 14:14:11;;;;;;;1.30;1.10;;;;;;;;;;5055142;28;20407;-77
2021/10/07 14:16:37;;;;;;;1.73;1.50;;;;;;;;;;5055155;28;20430;-77
2021/10/07 14:19:03;;;;;;;2.90;1.00;;;;;;;;;;5044810;28;20820;-77
2021/10/07 14:21:29;;;;;;;2.10;1.83;;;;;;;;;;5048949;28;20492;-77
2021/10/07 14:23:55;;;;;;;1.47;1.37;;;;;;;;;;5054454;28;20480;-77
2021/10/07 14:26:21;;;;;;;1.70;1.60;;;;;;;;;;5053742;28;20854;-77
2021/10/07 14:28:47;;;;;;;1.73;1.47;;;;;;;;;;5054950;28;20382;-77
2021/10/07 14:31:13;;;;;;;1.13;1.03;;;;;;;;;;5054925;28;20417;-77
2021/10/07 14:33:39;;;;;;;1.67;0.93;;;;;;;;;;5053730;28;20393;-77
2021/10/07 14:36:05;;;;;;;2.03;0.93;;;;;;;;;;5052874;28;20466;-77
2021/10/07 14:38:31;;;;;;;1.53;1.00;;;;;;;;;;5054671;28;20826;-77
2021/10/07 14:40:57;;;;;;;1.50;1.40;;;;;;;;;;5052164;28;20435;-77
2021/10/07 14:43:23;;;;;;;0.90;0.60;;;;;;;;;;5054573;28;20438;-76
2021/10/07 14:45:49;;;;;;;2.00;1.90;;;;;;;;;;5062234;28;20475;-77